Time;durP1;ratioP1;P1;durP2;ratioP2;P2;SDS_P1;SDS_P2;PMS_P1;PMS_P2;Temp;Humidity;BMP_temperature;BMP_pressure;BME280_temperature;BME280_humidity;BME280_pressure;Samples;Min_cycle;Max_cycle;Signal;HPM_P1;HPM_P2
2022/07/19 00:01:35;;;;;;;4.32;3.08;;;;;;;18.59;65.21;100159.00;4977105;28;20069;-84
2022/07/19 00:04:00;;;;;;;4.63;2.97;;;;;;;18.55;65.29;100162.81;4994332;28;20038;-84
2022/07/19 00:06:26;;;;;;;6.20;3.00;;;;;;;18.50;65.19;100165.78;4993619;28;20038;-83
2022/07/19 00:08:51;;;;;;;3.30;2.58;;;;;;;18.49;65.71;100173.78;4993256;28;20486;-84
2022/07/19 00:11:17;;;;;;;3.35;2.90;;;;;;;18.40;66.22;100168.22;4977311;28;20070;-84
2022/07/19 00:13:43;;;;;;;4.28;2.95;;;;;;;18.42;66.25;100170.75;4993263;28;20482;-84
2022/07/19 00:16:08;;;;;;;4.28;3.00;;;;;;;18.41;66.90;100169.91;4993363;28;20478;-84
2022/07/19 00:18:33;;;;;;;4.35;2.95;;;;;;;18.37;66.70;100165.81;4994430;28;20088;-84
2022/07/19 00:20:59;;;;;;;4.72;3.08;;;;;;;18.29;66.71;100160.25;4994671;28;20026;-84
2022/07/19 00:23:24;;;;;;;5.20;2.78;;;;;;;18.22;66.88;100145.78;4994599;28;20084;-84
2022/07/19 00:25:50;;;;;;;3.45;2.85;;;;;;;18.32;66.82;100170.53;4992845;28;20038;-84
2022/07/19 00:28:15;;;;;;;4.03;2.65;;;;;;;18.31;66.88;100163.59;4977005;28;20516;-84
2022/07/19 00:30:41;;;;;;;3.45;2.80;;;;;;;18.27;67.56;100154.22;4972030;28;20109;-84
2022/07/19 00:33:08;;;;;;;5.05;3.40;;;;;;;18.20;67.60;100142.41;4972469;28;20442;-84
2022/07/19 00:35:35;;;;;;;4.97;3.13;;;;;;;18.11;68.21;100145.69;4971955;28;20078;-84
2022/07/19 00:38:11;;;;;;;5.97;3.15;;;;;;;18.18;68.82;100165.41;4972329;28;20106;-84
2022/07/19 00:40:38;;;;;;;4.50;2.75;;;;;;;18.05;69.66;100148.78;4972053;28;20042;-84
2022/07/19 00:43:05;;;;;;;4.72;2.85;;;;;;;18.10;69.07;100165.94;4972309;28;20031;-84
2022/07/19 00:45:30;;;;;;;3.42;2.80;;;;;;;18.09;69.47;100166.91;4955658;28;20223;-84
2022/07/19 00:47:56;;;;;;;7.68;3.25;;;;;;;17.98;69.58;100148.34;4972144;28;20454;-84
2022/07/19 00:50:22;;;;;;;3.83;2.72;;;;;;;18.01;70.24;100156.03;4972173;28;20098;-84
2022/07/19 00:53:00;;;;;;;5.15;3.05;;;;;;;17.99;70.35;100155.28;4971988;28;20046;-84
2022/07/19 00:55:28;;;;;;;5.22;3.03;;;;;;;17.98;70.42;100152.75;4972218;28;20051;-84
2022/07/19 00:57:56;;;;;;;5.47;3.38;;;;;;;17.98;70.64;100165.94;4955514;28;20549;-84
2022/07/19 01:00:21;;;;;;;4.57;3.03;;;;;;;17.87;70.58;100148.25;4955863;28;20042;-84
2022/07/19 01:02:47;;;;;;;4.88;3.08;;;;;;;17.91;70.44;100165.53;4953279;28;20433;-84
2022/07/19 01:05:13;;;;;;;3.53;2.90;;;;;;;17.82;70.80;100166.16;4952616;29;20035;-84
2022/07/19 01:07:40;;;;;;;4.35;2.88;;;;;;;17.79;70.67;100159.31;4991163;28;20049;-84
2022/07/19 01:10:07;;;;;;;4.28;2.83;;;;;;;17.76;71.21;100159.53;4993955;28;20102;-84
2022/07/19 01:12:33;;;;;;;4.63;3.10;;;;;;;17.77;71.01;100168.25;4993149;28;20038;-84
2022/07/19 01:14:59;;;;;;;3.90;2.92;;;;;;;17.70;71.52;100152.84;4993492;28;20041;-84
2022/07/19 01:17:25;;;;;;;3.85;2.85;;;;;;;17.66;71.80;100158.44;4992126;28;20026;-84
2022/07/19 01:19:51;;;;;;;5.97;3.53;;;;;;;17.62;71.61;100160.44;4993551;28;20038;-84
2022/07/19 01:22:17;;;;;;;4.05;3.15;;;;;;;17.55;71.89;100143.34;4993540;28;20025;-84
2022/07/19 01:24:42;;;;;;;5.63;2.83;;;;;;;17.43;71.94;100138.91;4991814;28;20030;-84
2022/07/19 01:27:08;;;;;;;6.75;3.22;;;;;;;17.55;72.45;100163.56;4993413;28;20077;-84
2022/07/19 01:29:37;;;;;;;4.28;3.00;;;;;;;17.41;72.55;100152.19;4993191;28;20474;-84
2022/07/19 01:32:04;;;;;;;4.93;3.43;;;;;;;17.28;72.90;100137.31;4992025;28;20037;-84
2022/07/19 01:34:29;;;;;;;5.03;3.40;;;;;;;17.39;72.81;100154.06;4991930;28;20077;-83
2022/07/19 01:36:55;;;;;;;4.80;3.13;;;;;;;17.33;73.27;100151.00;4992872;28;20390;-84
2022/07/19 01:39:20;;;;;;;5.80;3.55;;;;;;;17.33;72.43;100143.13;4993016;28;20037;-84
2022/07/19 01:41:45;;;;;;;3.97;3.00;;;;;;;17.39;72.73;100154.06;4992742;28;20406;-84
2022/07/19 01:44:11;;;;;;;7.63;3.40;;;;;;;17.30;72.62;100143.31;4975699;28;20034;-84
2022/07/19 01:46:36;;;;;;;5.32;3.20;;;;;;;17.34;73.06;100136.91;4975302;28;20061;-83
2022/07/19 01:49:02;;;;;;;5.18;3.42;;;;;;;17.43;72.84;100146.81;4993070;28;20540;-83
2022/07/19 01:51:27;;;;;;;5.82;3.53;;;;;;;17.40;73.32;100144.38;4992910;28;20110;-83
2022/07/19 01:53:53;;;;;;;5.38;3.30;;;;;;;17.46;73.52;100157.97;4975155;28;20070;-83
2022/07/19 01:56:18;;;;;;;5.30;3.33;;;;;;;17.41;73.77;100144.28;4991830;28;20030;-83
2022/07/19 01:58:43;;;;;;;6.43;3.63;;;;;;;17.43;74.37;100152.06;4992943;28;20030;-83
2022/07/19 02:01:09;;;;;;;5.93;2.97;;;;;;;17.31;74.94;100132.66;4975356;28;20066;-83
2022/07/19 02:03:34;;;;;;;5.68;3.33;;;;;;;17.29;74.83;100126.69;4991268;28;20030;-83
2022/07/19 02:05:59;;;;;;;3.80;3.10;;;;;;;17.35;75.35;100141.19;4992950;28;20101;-83
2022/07/19 02:08:25;;;;;;;8.45;3.10;;;;;;;17.38;75.99;100144.47;4975174;28;20026;-84
2022/07/19 02:10:50;;;;;;;4.55;2.92;;;;;;;17.20;75.70;100114.13;4990976;28;20019;-84
2022/07/19 02:13:16;;;;;;;4.25;3.25;;;;;;;17.44;75.30;100144.09;4975330;28;20030;-84
2022/07/19 02:15:41;;;;;;;7.43;3.80;;;;;;;17.38;75.16;100130.47;4991239;28;20026;-83
2022/07/19 02:18:07;;;;;;;4.65;3.65;;;;;;;17.46;75.25;100147.44;4975080;28;20095;-84
2022/07/19 02:20:32;;;;;;;5.03;3.78;;;;;;;17.48;74.98;100143.84;4992510;28;20030;-84
2022/07/19 02:22:58;;;;;;;6.78;3.63;;;;;;;17.54;74.92;100152.19;4974854;28;20216;-84
2022/07/19 02:25:23;;;;;;;7.28;3.80;;;;;;;17.43;74.93;100123.94;4992305;28;20089;-84
2022/07/19 02:27:49;;;;;;;7.60;3.72;;;;;;;17.60;74.59;100156.19;4990197;28;20100;-84
2022/07/19 02:30:16;;;;;;;8.40;3.90;;;;;;;17.60;74.84;100154.41;4992756;28;20022;-84
2022/07/19 02:32:42;;;;;;;6.80;3.88;;;;;;;17.55;75.02;100145.97;4990905;28;20132;-84
2022/07/19 02:35:08;;;;;;;5.68;3.22;;;;;;;17.56;75.16;100149.44;4992430;28;20113;-85
2022/07/19 02:37:34;;;;;;;4.05;3.42;;;;;;;17.52;75.83;100137.44;4990957;28;20037;-84
2022/07/19 02:39:59;;;;;;;6.10;3.78;;;;;;;17.63;76.04;100151.56;4990743;28;20410;-83
2022/07/19 02:42:24;;;;;;;6.75;3.70;;;;;;;17.52;75.85;100134.81;4991066;28;20042;-84
2022/07/19 02:44:50;;;;;;;5.97;3.80;;;;;;;17.58;75.85;100140.50;4992155;28;20034;-84
2022/07/19 02:47:15;;;;;;;7.95;3.72;;;;;;;17.70;76.07;100159.91;4992176;28;20035;-84
2022/07/19 02:49:41;;;;;;;6.35;4.35;;;;;;;17.65;76.51;100147.03;4990786;28;20033;-84
2022/07/19 02:52:06;;;;;;;6.80;4.00;;;;;;;17.62;76.45;100131.47;4992181;28;20109;-84
2022/07/19 02:54:32;;;;;;;5.65;4.38;;;;;;;17.71;76.05;100156.31;4992027;28;20026;-84
2022/07/19 02:56:57;;;;;;;5.60;3.50;;;;;;;17.65;76.83;100148.81;4991999;28;20029;-84
2022/07/19 02:59:22;;;;;;;7.40;3.70;;;;;;;17.59;76.76;100136.09;4990970;28;20077;-84
2022/07/19 03:01:48;;;;;;;5.55;3.50;;;;;;;17.63;76.47;100140.19;4990626;28;20034;-83
2022/07/19 03:04:13;;;;;;;5.82;3.78;;;;;;;17.62;76.78;100133.25;4992386;28;20471;-83
2022/07/19 03:06:38;;;;;;;6.20;3.80;;;;;;;17.73;77.17;100153.56;4991815;28;20034;-83
2022/07/19 03:09:04;;;;;;;6.35;3.83;;;;;;;17.72;77.54;100150.09;4974523;28;20022;-84
2022/07/19 03:11:29;;;;;;;5.07;3.25;;;;;;;17.63;77.53;100135.78;4974678;28;20034;-84
2022/07/19 03:13:54;;;;;;;5.88;3.92;;;;;;;17.54;78.13;100114.50;4990528;28;20033;-83
2022/07/19 03:16:21;;;;;;;7.70;4.43;;;;;;;17.71;78.11;100157.16;4992071;28;20492;-83
2022/07/19 03:18:46;;;;;;;5.13;3.30;;;;;;;17.70;78.52;100154.66;4991970;28;20085;-84
2022/07/19 03:21:12;;;;;;;5.68;3.75;;;;;;;17.61;78.30;100136.81;4990758;28;20030;-84
2022/07/19 03:23:37;;;;;;;6.05;3.60;;;;;;;17.72;78.71;100155.38;4974241;28;20456;-84
2022/07/19 03:26:04;;;;;;;6.13;3.83;;;;;;;17.76;79.08;100164.78;4991764;28;20454;-84
2022/07/19 03:28:30;;;;;;;7.20;4.10;;;;;;;17.71;79.30;100159.81;4990854;28;20038;-83
2022/07/19 03:30:55;;;;;;;6.55;4.07;;;;;;;17.75;79.30;100163.09;4974218;28;20393;-83
2022/07/19 03:33:21;;;;;;;6.18;4.45;;;;;;;17.71;79.48;100156.31;4990489;28;20084;-84
2022/07/19 03:35:46;;;;;;;6.97;4.57;;;;;;;17.73;79.67;100162.31;4991679;28;20036;-83
2022/07/19 03:38:13;;;;;;;6.25;4.68;;;;;;;17.76;79.70;100171.84;4991793;28;20081;-83
2022/07/19 03:40:39;;;;;;;9.38;4.30;;;;;;;17.73;80.08;100158.84;4994042;28;20034;-84
2022/07/19 03:43:05;;;;;;;4.90;3.78;;;;;;;17.75;79.66;100167.53;4995512;28;20023;-84
2022/07/19 03:45:31;;;;;;;7.05;5.07;;;;;;;17.73;79.91;100157.06;4994006;28;20022;-84
2022/07/19 03:47:56;;;;;;;8.48;5.20;;;;;;;17.80;79.71;100160.16;4953731;29;20447;-84
2022/07/19 03:50:22;;;;;;;7.28;5.10;;;;;;;17.74;79.62;100140.34;4954091;29;20050;-84
2022/07/19 03:52:47;;;;;;;8.77;5.18;;;;;;;17.79;79.54;100143.50;4953900;29;20039;-83
2022/07/19 03:55:12;;;;;;;7.47;5.07;;;;;;;17.88;80.02;100155.22;4953939;29;20042;-83
2022/07/19 03:57:38;;;;;;;7.25;4.22;;;;;;;17.79;80.81;100140.88;4953763;29;20383;-83
2022/07/19 04:00:04;;;;;;;9.43;4.60;;;;;;;17.95;80.49;100162.59;4953684;29;20126;-84
2022/07/19 04:02:30;;;;;;;9.82;4.75;;;;;;;17.90;80.01;100140.94;4953752;29;20027;-84
2022/07/19 04:04:55;;;;;;;6.53;4.32;;;;;;;17.96;79.45;100139.72;4937490;29;20117;-84
2022/07/19 04:07:20;;;;;;;7.25;4.40;;;;;;;18.01;79.17;100139.38;4953795;29;20027;-84
2022/07/19 04:09:46;;;;;;;7.20;5.03;;;;;;;18.15;78.06;100161.19;4953466;29;20027;-84
2022/07/19 04:12:11;;;;;;;7.35;4.47;;;;;;;18.17;77.78;100154.03;4953513;28;20046;-84
2022/07/19 04:14:36;;;;;;;7.95;4.82;;;;;;;18.23;79.23;100158.00;4953595;29;20122;-84
2022/07/19 04:17:04;;;;;;;8.77;5.10;;;;;;;18.32;79.08;100167.06;4953230;29;20094;-84
2022/07/19 04:19:30;;;;;;;7.30;4.80;;;;;;;18.34;79.53;100170.47;4953423;29;20043;-83
2022/07/19 04:21:55;;;;;;;6.93;4.63;;;;;;;18.41;79.69;100147.94;4953162;29;20038;-84
2022/07/19 04:24:20;;;;;;;7.03;4.68;;;;;;;18.74;77.29;100163.19;4956280;28;20395;-84
2022/07/19 04:26:46;;;;;;;9.02;4.57;;;;;;;18.86;76.24;100172.84;4976865;28;20077;-84
2022/07/19 04:29:11;;;;;;;6.07;4.53;;;;;;;18.82;76.32;100155.56;4993301;28;20027;-84
2022/07/19 04:31:36;;;;;;;6.32;4.82;;;;;;;19.05;75.05;100163.63;4977133;28;20110;-84
2022/07/19 04:34:02;;;;;;;8.63;4.63;;;;;;;19.54;70.38;100152.84;4976747;28;20028;-84
2022/07/19 04:36:27;;;;;;;8.80;4.90;;;;;;;20.23;67.35;100171.34;4992987;28;20026;-84
2022/07/19 04:38:52;;;;;;;9.15;4.88;;;;;;;20.68;65.95;100169.50;4994065;28;20057;-84
2022/07/19 04:41:18;;;;;;;12.52;4.75;;;;;;;21.07;63.36;100163.75;4994617;28;20161;-84
2022/07/19 04:43:43;;;;;;;10.90;4.72;;;;;;;21.40;61.94;100170.75;4994306;28;20023;-84
2022/07/19 04:46:08;;;;;;;7.20;5.00;;;;;;;21.58;60.92;100177.19;4994348;28;20034;-84
2022/07/19 04:48:34;;;;;;;9.00;5.07;;;;;;;21.80;58.98;100175.34;4976692;28;20072;-84
2022/07/19 04:50:59;;;;;;;8.68;5.40;;;;;;;21.77;58.76;100159.69;4993211;28;20065;-84
2022/07/19 04:53:24;;;;;;;9.45;4.90;;;;;;;21.86;58.27;100153.59;4976564;28;20030;-85
2022/07/19 04:55:50;;;;;;;9.60;5.45;;;;;;;22.07;57.47;100164.19;4993827;28;20594;-84
2022/07/19 04:58:15;;;;;;;8.00;4.97;;;;;;;21.94;57.70;100156.44;4993966;28;20070;-85
2022/07/19 05:00:40;;;;;;;9.60;5.40;;;;;;;21.74;58.46;100152.84;4992660;28;20034;-84
2022/07/19 05:03:06;;;;;;;9.45;5.68;;;;;;;21.86;58.51;100164.22;4993726;28;20070;-84
2022/07/19 05:05:31;;;;;;;10.57;6.13;;;;;;;22.15;58.01;100167.88;4993854;28;20493;-84
2022/07/19 05:07:57;;;;;;;7.88;5.10;;;;;;;22.64;57.23;100183.97;4993427;28;20482;-84
2022/07/19 05:10:22;;;;;;;9.05;5.20;;;;;;;22.99;55.55;100161.41;4994411;28;20034;-84
2022/07/19 05:12:48;;;;;;;8.73;4.90;;;;;;;23.46;53.57;100177.50;4976200;28;20019;-84
2022/07/19 05:15:13;;;;;;;8.65;4.55;;;;;;;23.50;52.85;100171.75;4994023;28;20038;-84
2022/07/19 05:17:39;;;;;;;9.15;4.88;;;;;;;23.41;52.49;100159.31;4993505;28;20027;-84
2022/07/19 05:20:06;;;;;;;10.52;4.63;;;;;;;23.72;53.52;100175.94;4993586;28;20074;-84
2022/07/19 05:22:32;;;;;;;9.82;4.65;;;;;;;23.95;52.05;100179.13;4993647;28;20387;-84
2022/07/19 05:24:57;;;;;;;13.68;4.68;;;;;;;24.23;51.76;100174.69;4993844;28;20113;-84
2022/07/19 05:27:23;;;;;;;7.95;4.53;;;;;;;24.73;49.41;100173.47;4991522;28;20058;-85
2022/07/19 05:29:49;;;;;;;6.38;4.32;;;;;;;25.48;48.04;100166.03;4993368;28;20402;-84
2022/07/19 05:32:14;;;;;;;12.10;4.93;;;;;;;26.04;45.93;100146.06;4993525;28;20034;-85
2022/07/19 05:34:40;;;;;;;10.95;4.65;;;;;;;25.76;45.94;100158.75;4993557;28;20026;-85
2022/07/19 05:37:05;;;;;;;7.80;3.85;;;;;;;25.09;46.60;100161.06;4993069;28;20022;-85
2022/07/19 05:39:31;;;;;;;6.68;4.00;;;;;;;24.50;48.65;100167.72;4992033;28;20053;-85
2022/07/19 05:41:56;;;;;;;8.32;4.10;;;;;;;23.95;49.58;100165.81;4993237;28;20037;-85
2022/07/19 05:44:21;;;;;;;8.05;4.20;;;;;;;23.58;50.98;100163.91;4993443;28;20034;-85
2022/07/19 05:46:47;;;;;;;7.18;4.57;;;;;;;23.23;51.94;100153.88;4993324;28;20030;-85
2022/07/19 05:49:13;;;;;;;7.53;3.95;;;;;;;23.18;53.41;100168.56;4993800;28;20458;-84
2022/07/19 05:51:38;;;;;;;8.23;4.40;;;;;;;23.06;53.62;100162.56;4991884;28;20165;-85
2022/07/19 05:54:04;;;;;;;11.63;4.63;;;;;;;23.16;53.66;100160.72;4993287;28;20095;-85
2022/07/19 05:56:30;;;;;;;10.15;4.22;;;;;;;23.18;52.85;100157.94;4993200;28;20080;-85
2022/07/19 05:58:55;;;;;;;7.40;4.65;;;;;;;23.29;53.46;100150.66;4992952;28;20054;-84
2022/07/19 06:01:23;;;;;;;6.22;3.60;;;;;;;23.60;53.19;100163.78;4951494;28;20039;-85
2022/07/19 06:03:51;;;;;;;6.35;3.92;;;;;;;23.86;52.31;100164.88;4934867;29;20031;-85
2022/07/19 06:06:16;;;;;;;8.32;3.78;;;;;;;24.25;51.79;100156.75;4951719;29;20044;-84
2022/07/19 06:08:42;;;;;;;7.38;3.95;;;;;;;24.82;50.09;100161.94;4952105;29;20103;-87
2022/07/19 06:11:08;;;;;;;7.25;3.80;;;;;;;25.03;51.14;100143.81;4935532;29;20043;-88
2022/07/19 06:13:34;;;;;;;8.80;4.00;;;;;;;25.37;49.98;100146.63;4935644;29;20038;-88
2022/07/19 06:16:00;;;;;;;5.95;3.80;;;;;;;25.71;48.16;100153.88;4935525;29;20086;-87
2022/07/19 06:18:25;;;;;;;9.77;3.80;;;;;;;26.15;46.99;100161.00;4951840;29;20039;-88
2022/07/19 06:20:51;;;;;;;8.27;4.15;;;;;;;27.24;45.18;100145.78;4951245;29;20069;-88
2022/07/19 06:23:16;;;;;;;9.73;3.90;;;;;;;29.20;41.14;100163.03;4951524;29;20105;-88
2022/07/19 06:25:41;;;;;;;6.32;3.72;;;;;;;30.40;37.81;100147.75;4935536;29;20471;-88
2022/07/19 06:28:07;;;;;;;5.63;3.35;;;;;;;30.73;36.26;100137.41;4935236;29;20147;-87
2022/07/19 06:30:32;;;;;;;7.18;4.25;;;;;;;30.55;36.32;100153.09;4952016;29;20547;-88
2022/07/19 06:32:58;;;;;;;6.07;3.42;;;;;;;30.41;37.10;100151.25;4951132;29;20130;-88
2022/07/19 06:35:24;;;;;;;6.85;3.63;;;;;;;30.27;37.24;100139.53;4951232;29;20118;-88
2022/07/19 06:37:49;;;;;;;6.55;3.70;;;;;;;30.73;36.58;100153.53;4939592;28;20039;-88
2022/07/19 06:40:15;;;;;;;9.40;3.42;;;;;;;31.53;34.28;100146.25;4975934;28;20745;-88
2022/07/19 06:42:40;;;;;;;6.22;3.35;;;;;;;32.49;33.34;100149.94;4991338;28;20513;-89
2022/07/19 06:45:06;;;;;;;3.92;2.97;;;;;;;33.50;32.38;100154.47;4974866;28;20026;-88
2022/07/19 06:47:34;;;;;;;5.63;3.10;;;;;;;33.95;30.21;100155.47;4992366;28;20117;-89
2022/07/19 06:50:00;;;;;;;6.45;2.92;;;;;;;34.33;29.40;100146.63;4974717;28;20456;-88
2022/07/19 06:52:25;;;;;;;4.28;3.05;;;;;;;34.79;29.57;100161.81;4991337;28;20121;-88
2022/07/19 06:54:51;;;;;;;6.75;3.47;;;;;;;34.70;28.80;100150.44;4990935;28;20054;-88
2022/07/19 06:57:16;;;;;;;8.63;3.75;;;;;;;34.82;28.63;100149.75;4991069;28;20029;-88
2022/07/19 06:59:42;;;;;;;6.97;3.22;;;;;;;35.21;28.72;100159.50;4991124;28;20030;-88
2022/07/19 07:02:07;;;;;;;5.80;3.00;;;;;;;35.55;29.01;100147.34;4990732;28;20288;-88
2022/07/19 07:04:33;;;;;;;5.45;3.10;;;;;;;35.59;27.83;100147.72;4990859;28;20051;-88
2022/07/19 07:06:58;;;;;;;5.70;3.28;;;;;;;35.77;27.54;100131.47;4974570;28;20026;-89
2022/07/19 07:09:24;;;;;;;4.63;2.90;;;;;;;35.83;27.24;100157.72;4991158;28;20038;-88
2022/07/19 07:11:49;;;;;;;6.35;2.92;;;;;;;35.96;27.04;100144.03;4990895;28;20037;-88
2022/07/19 07:14:14;;;;;;;4.57;3.10;;;;;;;35.65;26.94;100147.69;4976804;28;20429;-88
2022/07/19 07:16:40;;;;;;;5.80;2.83;;;;;;;35.70;27.66;100147.84;4978468;28;20034;-88
2022/07/19 07:19:05;;;;;;;4.88;3.08;;;;;;;35.81;27.18;100145.41;4978218;28;20033;-88
2022/07/19 07:21:34;;;;;;;6.25;3.00;;;;;;;35.69;26.97;100151.59;4995925;28;20113;-88
2022/07/19 07:24:03;;;;;;;5.05;2.85;;;;;;;35.67;26.88;100147.44;4978310;28;20025;-88
2022/07/19 07:26:29;;;;;;;6.18;3.35;;;;;;;35.65;28.27;100144.97;4994500;28;20057;-89
2022/07/19 07:28:55;;;;;;;5.32;2.78;;;;;;;35.98;27.19;100155.47;4993006;28;20042;-89
2022/07/19 07:31:20;;;;;;;6.95;3.03;;;;;;;36.23;26.05;100151.84;4965686;28;20565;-89
2022/07/19 07:33:45;;;;;;;3.55;2.60;;;;;;;36.24;26.05;100153.53;4957539;28;20031;-89
2022/07/19 07:36:11;;;;;;;5.35;2.92;;;;;;;36.28;26.77;100156.59;4957308;28;20149;-89
2022/07/19 07:38:36;;;;;;;5.95;3.28;;;;;;;36.32;25.88;100147.75;4957423;28;20067;-88
2022/07/19 07:41:03;;;;;;;4.97;2.75;;;;;;;36.50;25.40;100162.41;4957356;28;20372;-89
2022/07/19 07:43:29;;;;;;;4.25;2.70;;;;;;;36.57;25.37;100158.53;4973525;28;20042;-89
2022/07/19 07:45:54;;;;;;;4.13;2.70;;;;;;;36.70;25.45;100163.81;4957187;28;20446;-89
2022/07/19 07:48:20;;;;;;;5.43;2.60;;;;;;;36.61;24.82;100164.34;4957413;28;20046;-89
2022/07/19 07:50:45;;;;;;;9.65;3.05;;;;;;;36.61;24.68;100151.59;4957456;28;20043;-89
2022/07/19 07:53:10;;;;;;;9.10;3.17;;;;;;;36.56;25.60;100151.47;4957076;28;20094;-88
2022/07/19 07:55:39;;;;;;;7.75;3.35;;;;;;;36.60;25.94;100149.94;4957637;28;20042;-89
2022/07/19 07:58:08;;;;;;;3.73;2.43;;;;;;;36.51;25.46;100151.31;4957095;28;20022;-89
2022/07/19 08:00:34;;;;;;;6.20;2.70;;;;;;;36.51;25.73;100153.22;4973110;28;20397;-89
2022/07/19 08:03:00;;;;;;;4.57;2.78;;;;;;;36.42;25.07;100150.78;4977215;28;20035;-89
2022/07/19 08:05:25;;;;;;;5.78;2.58;;;;;;;36.25;25.85;100144.31;4977725;28;20025;-89
2022/07/19 08:07:51;;;;;;;5.00;3.10;;;;;;;36.00;26.63;100141.72;4977823;28;20022;-89
2022/07/19 08:10:16;;;;;;;4.65;2.97;;;;;;;35.55;26.81;100150.06;4978147;28;20387;-94
2022/07/19 08:12:41;;;;;;;15.98;3.17;;;;;;;35.41;26.18;100154.75;4978960;28;20113;-94
2022/07/19 08:15:07;;;;;;;4.53;2.72;;;;;;;35.21;26.17;100144.06;4995310;28;20038;-94
2022/07/19 08:17:33;;;;;;;5.07;2.45;;;;;;;34.96;25.86;100154.84;4979528;28;20027;-93
2022/07/19 08:19:59;;;;;;;5.65;2.60;;;;;;;34.58;26.27;100160.28;4979262;28;20038;-94
2022/07/19 08:22:24;;;;;;;4.13;2.72;;;;;;;34.31;27.10;100153.31;4979325;28;20026;-93
2022/07/19 08:24:50;;;;;;;2.97;2.40;;;;;;;34.17;27.20;100157.91;4978452;28;20045;-93
2022/07/19 08:27:15;;;;;;;5.85;2.47;;;;;;;34.07;26.96;100150.25;4978746;28;20055;-95
2022/07/19 08:29:41;;;;;;;4.38;2.33;;;;;;;33.94;27.34;100148.41;4979498;28;20033;-94
2022/07/19 08:32:06;;;;;;;3.80;2.38;;;;;;;33.61;28.09;100151.16;4979016;28;20088;-93
2022/07/19 08:34:31;;;;;;;4.55;2.47;;;;;;;33.35;28.41;100153.84;4979098;28;20030;-93
2022/07/19 08:36:57;;;;;;;3.65;2.40;;;;;;;33.00;28.61;100149.47;4978663;28;20093;-94
2022/07/19 08:39:22;;;;;;;5.65;2.80;;;;;;;32.78;28.19;100145.22;4979252;28;20027;-94
2022/07/19 08:41:48;;;;;;;5.72;2.60;;;;;;;32.46;27.44;100144.13;4978981;28;20026;-94
2022/07/19 08:44:16;;;;;;;4.32;2.72;;;;;;;32.01;29.60;100114.03;4979176;28;20041;-93
2022/07/19 08:47:01;;;;;;;5.55;2.50;;;;;;;32.05;28.55;100135.00;4967165;28;20134;-93
2022/07/19 08:49:27;;;;;;;2.65;2.45;;;;;;;32.02;29.82;100137.25;4953748;29;20039;-92
2022/07/19 08:51:53;;;;;;;3.40;2.60;;;;;;;31.88;29.51;100140.91;4953640;29;20058;-92
2022/07/19 08:54:19;;;;;;;4.72;2.67;;;;;;;31.63;29.34;100121.66;4953668;29;20038;-91
2022/07/19 08:59:30;;;;;;;4.85;2.45;;;;;;;31.43;30.17;100135.78;4954334;29;20037;-89
2022/07/19 09:01:56;;;;;;;6.13;3.10;;;;;;;31.33;30.01;100135.31;4952760;29;20134;-90
2022/07/19 09:04:25;;;;;;;6.88;2.60;;;;;;;31.25;30.32;100120.09;4952763;29;20118;-90
2022/07/19 09:06:55;;;;;;;4.55;2.42;;;;;;;31.25;29.53;100124.66;4953128;29;20051;-91
2022/07/19 09:09:24;;;;;;;4.55;2.20;;;;;;;31.15;29.17;100133.06;4953189;29;20023;-90
2022/07/19 09:11:51;;;;;;;5.40;2.90;;;;;;;30.79;27.53;100130.44;4952855;28;20534;-90
2022/07/19 09:14:39;;;;;;;4.53;2.50;;;;;;;30.74;28.99;100122.09;4953002;29;20665;-90
2022/07/19 09:17:16;;;;;;;6.40;2.85;;;;;;;30.62;28.03;100123.59;4941190;28;20053;-90
2022/07/19 09:19:44;;;;;;;4.97;2.97;;;;;;;30.27;28.55;100124.22;4976583;28;20082;-90
2022/07/19 09:22:18;;;;;;;4.03;2.53;;;;;;;30.15;29.67;100116.84;4976099;28;20397;-90
2022/07/19 09:24:49;;;;;;;3.58;2.67;;;;;;;30.13;29.68;100119.69;4976565;28;20026;-89
2022/07/19 09:27:22;;;;;;;4.70;3.03;;;;;;;30.24;30.85;100121.91;4976108;28;20490;-90
2022/07/19 09:29:53;;;;;;;4.68;2.90;;;;;;;30.32;30.04;100116.44;4993892;28;20096;-89
2022/07/19 09:32:21;;;;;;;4.30;2.47;;;;;;;30.31;30.27;100108.56;4976114;28;20035;-88
2022/07/19 09:34:51;;;;;;;3.47;2.55;;;;;;;30.26;29.07;100111.84;4976419;28;20044;-90
2022/07/19 09:37:18;;;;;;;3.90;2.38;;;;;;;30.21;28.51;100114.22;4975706;28;20042;-90
2022/07/19 09:39:45;;;;;;;5.38;2.65;;;;;;;30.10;31.10;100095.88;4976224;28;20028;-89
2022/07/19 09:42:13;;;;;;;4.70;2.83;;;;;;;30.29;31.41;100110.59;4976068;28;20023;-90
2022/07/19 09:44:39;;;;;;;3.53;3.13;;;;;;;30.33;31.14;100104.66;4976167;28;20022;-89
2022/07/19 09:47:05;;;;;;;4.70;2.80;;;;;;;30.31;30.84;100089.75;4975664;28;20040;-90
2022/07/19 09:49:30;;;;;;;3.42;2.60;;;;;;;30.39;31.21;100092.34;4976114;28;20041;-89
2022/07/19 09:51:55;;;;;;;5.05;2.42;;;;;;;30.44;30.24;100097.97;4975903;28;20528;-89
2022/07/19 09:54:26;;;;;;;4.47;2.80;;;;;;;30.45;30.81;100094.25;4975526;28;20106;-89
2022/07/19 09:56:53;;;;;;;5.95;2.60;;;;;;;30.43;30.76;100087.41;4975717;28;20401;-90
2022/07/19 09:59:21;;;;;;;4.55;3.00;;;;;;;30.46;28.51;100095.91;4975482;28;20065;-89
2022/07/19 10:01:48;;;;;;;3.00;2.55;;;;;;;30.32;29.37;100083.34;4975590;28;20030;-89
2022/07/19 10:04:19;;;;;;;4.63;2.60;;;;;;;30.36;30.51;100095.41;4975646;28;20052;-89
2022/07/19 10:06:45;;;;;;;5.38;2.78;;;;;;;30.39;31.15;100092.34;4975665;28;20041;-89
2022/07/19 10:09:13;;;;;;;3.83;2.40;;;;;;;30.44;30.91;100086.41;4975406;28;20026;-89
2022/07/19 10:11:40;;;;;;;4.28;2.83;;;;;;;30.46;30.85;100087.84;4992990;28;20046;-89
2022/07/19 10:14:06;;;;;;;3.92;2.45;;;;;;;30.55;31.09;100100.19;4975250;28;20421;-90
2022/07/19 10:16:43;;;;;;;3.58;2.30;;;;;;;30.60;30.62;100088.03;4975633;28;20027;-89
2022/07/19 10:19:17;;;;;;;5.47;3.15;;;;;;;30.58;30.81;100083.63;4991520;28;20034;-89
2022/07/19 10:21:44;;;;;;;2.97;2.60;;;;;;;30.54;30.51;100068.09;4975471;28;20030;-90
2022/07/19 10:24:09;;;;;;;8.25;2.63;;;;;;;30.62;30.67;100088.66;4975305;28;20485;-90
2022/07/19 10:26:43;;;;;;;2.78;2.58;;;;;;;30.49;29.81;100065.16;4975117;28;20042;-89
2022/07/19 10:29:11;;;;;;;3.47;2.45;;;;;;;30.62;30.66;100076.03;4975262;28;20084;-90
2022/07/19 10:31:37;;;;;;;3.20;2.47;;;;;;;30.70;29.85;100081.28;4975638;28;20030;-89
2022/07/19 10:34:08;;;;;;;4.00;2.67;;;;;;;30.76;30.52;100077.88;4975062;28;20107;-90
2022/07/19 10:36:48;;;;;;;5.55;2.75;;;;;;;30.68;31.25;100063.69;4975513;28;20033;-89
2022/07/19 10:39:27;;;;;;;4.07;2.33;;;;;;;30.75;31.29;100064.59;4974834;28;20382;-89
2022/07/19 10:42:13;;;;;;;3.50;2.45;;;;;;;30.74;30.84;100057.56;4992755;28;20030;-90
2022/07/19 10:44:57;;;;;;;3.95;2.60;;;;;;;30.80;31.02;100068.41;4975106;28;20030;-88
2022/07/19 10:47:31;;;;;;;3.10;2.35;;;;;;;30.81;30.91;100067.38;4990995;28;20042;-89
2022/07/19 10:50:06;;;;;;;4.15;2.58;;;;;;;30.84;30.34;100060.75;4993283;28;20085;-88
2022/07/19 10:52:33;;;;;;;3.67;2.65;;;;;;;30.73;29.72;100051.38;4977956;28;20045;-90
2022/07/19 10:55:17;;;;;;;3.53;2.30;;;;;;;30.72;29.25;100047.03;4977932;28;20034;-89
2022/07/19 10:57:43;;;;;;;3.70;2.70;;;;;;;30.64;28.32;100038.22;4977672;28;20652;-89
2022/07/19 11:00:21;;;;;;;3.10;1.92;;;;;;;30.68;28.37;100048.41;4977371;28;20125;-88
2022/07/19 11:02:48;;;;;;;4.47;2.80;;;;;;;30.66;29.53;100042.38;4977710;28;20441;-89
2022/07/19 11:05:28;;;;;;;5.65;2.92;;;;;;;30.66;29.63;100028.09;4977356;28;20049;-89
2022/07/19 11:07:55;;;;;;;3.67;2.17;;;;;;;30.78;30.33;100040.03;4977516;28;20030;-88
2022/07/19 11:10:25;;;;;;;3.15;2.20;;;;;;;30.80;29.71;100035.28;4977393;28;20039;-88
2022/07/19 11:12:50;;;;;;;4.88;2.58;;;;;;;30.87;29.91;100044.25;4977316;28;20034;-89
2022/07/19 11:15:16;;;;;;;6.15;2.47;;;;;;;30.96;30.29;100050.31;4993620;28;20046;-89
2022/07/19 11:18:07;;;;;;;3.00;2.20;;;;;;;30.96;30.02;100042.25;4993923;28;20062;-89
2022/07/19 11:20:35;;;;;;;4.38;2.17;;;;;;;30.98;28.97;100037.50;4938917;29;20040;-90
2022/07/19 11:23:04;;;;;;;5.43;2.77;;;;;;;31.06;28.91;100040.91;4954899;29;20443;-90
2022/07/19 11:25:34;;;;;;;2.92;2.00;;;;;;;30.97;28.11;100023.25;4954872;29;20290;-90